Welcome to Des Moines Iowa Weather. I am an independent private personal weather station on the Northwest Side of Des Moines, Iowa. Just East of Windsor Heights and just West of Glendale . This site is also mobile friendly.

There are no active watches, warnings or advisories


Visit our other weather sites:

Historical Data

Weather Station Setup



Weather Underground History page Text

Daily Summary for September 21, 2017 Units:  English    Metric   Both
« Previous Day
Next Day »
Daily Weekly Monthly Yearly Custom
  High: Low: Average:
Temperature: 86.6 °F 67.2 °F 76.7 °F
Dew Point: 76.0 °F 61.0 °F 68.6 °F
Humidity: 95 % 65 % 77 %
Wind Speed: 5.0 mph 0.0 mph 0.6 mph
Wind Gust: 12.0 mph - -
Wind:- - SSE
Pressure: 29.88 in 29.75 in -
Precipitation: 0.00 in    
Historical Graphs
 
 
Tabular Data for September 21, 2017
Time Temperature Dew Point Pressure Wind Wind Speed Wind Gust Humidity Rainfall Rate (Hourly)
00:06 71.4 °F 61.0 °F 29.84 in Calm   4.0 mph 70 % 0.00 in
00:22 71.1 °F 61.0 °F 29.84 in Calm   3.0 mph 70 % 0.00 in
00:36 70.8 °F 61.0 °F 29.84 in NE 2.0 mph 4.0 mph 70 % 0.00 in
00:52 70.5 °F 61.0 °F 29.84 in NE 2.0 mph 4.0 mph 71 % 0.00 in
01:06 70.3 °F 61.0 °F 29.84 in ENE 1.0 mph 4.0 mph 72 % 0.00 in
01:21 70.0 °F 61.0 °F 29.84 in Calm   2.0 mph 72 % 0.00 in
01:36 69.7 °F 61.0 °F 29.84 in Calm     73 % 0.00 in
01:51 69.4 °F 61.0 °F 29.84 in Calm   1.0 mph 74 % 0.00 in
02:07 68.9 °F 61.0 °F 29.84 in Calm   2.0 mph 75 % 0.00 in
02:22 68.6 °F 61.0 °F 29.83 in Calm   2.0 mph 76 % 0.00 in
02:37 68.4 °F 61.0 °F 29.84 in Calm   3.0 mph 77 % 0.00 in
02:52 68.1 °F 61.0 °F 29.83 in Calm   1.0 mph 77 % 0.00 in
03:07 67.9 °F 61.0 °F 29.83 in Calm   2.0 mph 78 % 0.00 in
03:22 67.7 °F 61.0 °F 29.83 in Calm   3.0 mph 79 % 0.00 in
03:37 67.6 °F 61.0 °F 29.83 in NNE 2.0 mph 4.0 mph 80 % 0.00 in
03:52 67.4 °F 61.0 °F 29.82 in Calm   3.0 mph 81 % 0.00 in
04:07 67.3 °F 62.0 °F 29.83 in North 1.0 mph 3.0 mph 82 % 0.00 in
04:22 67.2 °F 62.0 °F 29.84 in Calm   3.0 mph 82 % 0.00 in
04:37 67.4 °F 62.0 °F 29.84 in Calm   3.0 mph 83 % 0.00 in
04:52 67.5 °F 62.0 °F 29.85 in Calm   4.0 mph 83 % 0.00 in
05:07 67.5 °F 63.0 °F 29.85 in Calm   3.0 mph 84 % 0.00 in
05:22 67.4 °F 62.0 °F 29.85 in Calm   4.0 mph 84 % 0.00 in
05:37 67.4 °F 63.0 °F 29.85 in Calm   2.0 mph 86 % 0.00 in
05:52 67.6 °F 64.0 °F 29.84 in Calm   3.0 mph 87 % 0.00 in
06:07 67.6 °F 64.0 °F 29.84 in Calm   3.0 mph 88 % 0.00 in
06:22 67.6 °F 64.0 °F 29.84 in Calm     89 % 0.00 in
06:37 67.4 °F 64.0 °F 29.84 in Calm     89 % 0.00 in
06:52 67.4 °F 65.0 °F 29.84 in Calm     90 % 0.00 in
07:07 67.5 °F 65.0 °F 29.85 in Calm     91 % 0.00 in
07:22 67.8 °F 66.0 °F 29.85 in ESE 2.0 mph 2.0 mph 92 % 0.00 in
07:37 68.0 °F 66.0 °F 29.84 in Calm   1.0 mph 93 % 0.00 in
07:52 68.3 °F 66.0 °F 29.83 in Calm     93 % 0.00 in
08:07 68.5 °F 67.0 °F 29.84 in Calm     94 % 0.00 in
08:22 68.9 °F 67.0 °F 29.85 in Calm     94 % 0.00 in
08:37 69.1 °F 67.0 °F 29.84 in Calm     94 % 0.00 in
08:52 69.4 °F 68.0 °F 29.85 in Calm     94 % 0.00 in
09:07 70.2 °F 69.0 °F 29.86 in Calm   7.0 mph 95 % 0.00 in
09:22 71.1 °F 69.0 °F 29.86 in Calm   3.0 mph 94 % 0.00 in
09:37 72.1 °F 70.0 °F 29.86 in SSW 1.0 mph 3.0 mph 94 % 0.00 in
09:52 73.4 °F 71.0 °F 29.87 in SE 2.0 mph 4.0 mph 92 % 0.00 in
10:07 74.6 °F 72.0 °F 29.87 in Calm   4.0 mph 90 % 0.00 in
10:23 75.8 °F 72.0 °F 29.87 in Calm   8.0 mph 87 % 0.00 in
10:38 76.4 °F 71.0 °F 29.88 in NE 2.0 mph 9.0 mph 83 % 0.00 in
10:53 76.1 °F 70.0 °F 29.88 in South 1.0 mph 12.0 mph 81 % 0.00 in
11:08 75.7 °F 70.0 °F 29.88 in South 3.0 mph 4.0 mph 82 % 0.00 in
11:23 75.3 °F 69.0 °F 29.88 in Calm   5.0 mph 80 % 0.00 in
11:38 75.3 °F 68.0 °F 29.88 in West 2.0 mph 5.0 mph 79 % 0.00 in
11:53 76.5 °F 69.0 °F 29.87 in Calm   5.0 mph 77 % 0.00 in
12:08 77.8 °F 69.0 °F 29.86 in Calm   7.0 mph 74 % 0.00 in
12:23 78.9 °F 70.0 °F 29.86 in Calm   6.0 mph 74 % 0.00 in
12:38 80.7 °F 71.0 °F 29.84 in SSW 1.0 mph 8.0 mph 71 % 0.00 in
12:53 82.2 °F 71.0 °F 29.83 in West 4.0 mph 7.0 mph 68 % 0.00 in
13:08 82.7 °F 71.0 °F 29.83 in SSW 2.0 mph 10.0 mph 68 % 0.00 in
13:23 84.1 °F 72.0 °F 29.82 in Calm   5.0 mph 67 % 0.00 in
13:38 84.8 °F 72.0 °F 29.82 in SSE 3.0 mph 7.0 mph 66 % 0.00 in
13:53 85.2 °F 73.0 °F 29.81 in Calm   9.0 mph 67 % 0.00 in
14:08 85.1 °F 74.0 °F 29.80 in Calm   10.0 mph 69 % 0.00 in
14:24 85.9 °F 76.0 °F 29.79 in Calm   9.0 mph 71 % 0.00 in
14:38 86.0 °F 74.0 °F 29.79 in Calm   7.0 mph 67 % 0.00 in
14:53 86.2 °F 74.0 °F 29.78 in SE 2.0 mph 8.0 mph 68 % 0.00 in
15:08 86.4 °F 75.0 °F 29.77 in Calm   9.0 mph 68 % 0.00 in
15:23 86.3 °F 75.0 °F 29.77 in SW 2.0 mph 6.0 mph 69 % 0.00 in
15:38 86.2 °F 74.0 °F 29.77 in SSE 5.0 mph 7.0 mph 68 % 0.00 in
15:53 86.2 °F 74.0 °F 29.76 in North 3.0 mph 8.0 mph 68 % 0.00 in
16:08 86.4 °F 74.0 °F 29.76 in Calm   9.0 mph 66 % 0.00 in
16:23 86.5 °F 74.0 °F 29.76 in Calm   7.0 mph 67 % 0.00 in
16:38 86.3 °F 74.0 °F 29.76 in SSE 5.0 mph 8.0 mph 66 % 0.00 in
16:54 86.4 °F 74.0 °F 29.75 in Calm   5.0 mph 67 % 0.00 in
17:08 86.5 °F 73.0 °F 29.75 in Calm   11.0 mph 65 % 0.00 in
17:24 86.6 °F 73.0 °F 29.75 in Calm   6.0 mph 65 % 0.00 in
17:38 86.5 °F 73.0 °F 29.75 in Calm   5.0 mph 65 % 0.00 in
17:54 86.3 °F 74.0 °F 29.75 in Calm   7.0 mph 66 % 0.00 in
18:09 86.0 °F 74.0 °F 29.75 in SW 1.0 mph 4.0 mph 68 % 0.00 in
18:24 85.6 °F 74.0 °F 29.75 in SE 2.0 mph 3.0 mph 69 % 0.00 in
18:39 85.3 °F 74.0 °F 29.75 in East 1.0 mph 3.0 mph 69 % 0.00 in
18:54 85.0 °F 74.0 °F 29.75 in SE 1.0 mph 3.0 mph 69 % 0.00 in
19:09 84.6 °F 73.0 °F 29.75 in Calm   3.0 mph 69 % 0.00 in
19:24 84.2 °F 73.0 °F 29.75 in Calm   2.0 mph 68 % 0.00 in
19:39 83.7 °F 73.0 °F 29.76 in Calm   3.0 mph 69 % 0.00 in
19:54 83.1 °F 73.0 °F 29.76 in SSW 2.0 mph 3.0 mph 71 % 0.00 in
20:09 82.7 °F 72.0 °F 29.77 in Calm   8.0 mph 70 % 0.00 in
20:24 82.6 °F 72.0 °F 29.77 in Calm   6.0 mph 70 % 0.00 in
20:39 82.5 °F 71.0 °F 29.78 in Calm   5.0 mph 69 % 0.00 in
20:54 82.2 °F 72.0 °F 29.78 in Calm   4.0 mph 70 % 0.00 in
21:09 81.6 °F 71.0 °F 29.78 in South 1.0 mph 5.0 mph 71 % 0.00 in
21:24 81.2 °F 71.0 °F 29.78 in Calm   3.0 mph 71 % 0.00 in
21:39 80.9 °F 71.0 °F 29.79 in South 1.0 mph 3.0 mph 72 % 0.00 in
21:54 80.6 °F 71.0 °F 29.79 in Calm   6.0 mph 73 % 0.00 in
22:09 80.3 °F 71.0 °F 29.79 in WNW 3.0 mph 3.0 mph 73 % 0.00 in
22:24 80.0 °F 71.0 °F 29.79 in Calm   4.0 mph 74 % 0.00 in
22:39 79.7 °F 71.0 °F 29.80 in SSE 1.0 mph 5.0 mph 74 % 0.00 in
22:54 79.4 °F 71.0 °F 29.80 in Calm   3.0 mph 75 % 0.00 in
23:09 79.1 °F 71.0 °F 29.81 in Calm   4.0 mph 76 % 0.00 in
23:24 78.9 °F 71.0 °F 29.80 in Calm   3.0 mph 76 % 0.00 in
23:39 78.7 °F 71.0 °F 29.82 in Calm   3.0 mph 77 % 0.00 in
23:54 78.5 °F 71.0 °F 29.82 in Calm   2.0 mph 77 % 0.00 in
Des Moines Weather and Climate
Compliments of Weather Underground - 3 mb

Script developed by  Jim McMurry - jmcmurry@mwt.net Adapted for the template by  Wim van der Kuil - Leuven-Template.eu

You find our weather info also at:

Weather Underground

Equipment we use:

Weather-station
Davis VP2 Plus

Weather-program
Davis Weatherlink.Com

Weather-server
iMac (Retina 4K, 21.5-inch, Late 2015)

Provider
Hostmonster.com

Davis VP2 Plus

Davis Weatherlink.Com

iMac (Retina 4K, 21.5-inch, Late 2015)

Hostmonster.com